sensor_id;sensor_type;location;lat;lon;timestamp;pressure;altitude;pressure_sealevel;temperature;humidity
498;BME280;39559;48.630;9.162;2023-01-30T00:01:26;98122.19;;;-3.18;100.00
498;BME280;39559;48.630;9.162;2023-01-30T00:03:52;98126.44;;;-3.17;100.00
498;BME280;39559;48.630;9.162;2023-01-30T00:06:18;98128.94;;;-3.20;100.00
498;BME280;39559;48.630;9.162;2023-01-30T00:08:44;98114.50;;;-3.21;100.00
498;BME280;39559;48.630;9.162;2023-01-30T00:11:11;98099.66;;;-3.40;100.00
498;BME280;39559;48.630;9.162;2023-01-30T00:15:42;98099.66;;;-3.40;100.00
498;BME280;39559;48.630;9.162;2023-01-30T00:18:08;98095.50;;;-3.38;100.00
498;BME280;39559;48.630;9.162;2023-01-30T00:20:35;98093.97;;;-3.30;100.00
498;BME280;39559;48.630;9.162;2023-01-30T00:23:00;98090.56;;;-3.32;100.00
498;BME280;39559;48.630;9.162;2023-01-30T00:25:27;98080.59;;;-3.23;100.00
498;BME280;39559;48.630;9.162;2023-01-30T00:27:52;98071.00;;;-3.35;100.00
498;BME280;39559;48.630;9.162;2023-01-30T00:30:18;98060.19;;;-3.26;100.00
498;BME280;39559;48.630;9.162;2023-01-30T00:32:44;98055.78;;;-3.36;100.00
498;BME280;39559;48.630;9.162;2023-01-30T00:35:09;98055.00;;;-3.32;100.00
498;BME280;39559;48.630;9.162;2023-01-30T00:39:44;98054.84;;;-3.40;100.00
498;BME280;39559;48.630;9.162;2023-01-30T00:42:10;98056.75;;;-3.30;100.00
498;BME280;39559;48.630;9.162;2023-01-30T00:44:54;98055.94;;;-3.29;100.00
498;BME280;39559;48.630;9.162;2023-01-30T00:47:38;98048.03;;;-3.41;100.00
498;BME280;39559;48.630;9.162;2023-01-30T00:50:03;98038.03;;;-3.33;100.00
498;BME280;39559;48.630;9.162;2023-01-30T00:52:29;98041.22;;;-3.43;100.00
498;BME280;39559;48.630;9.162;2023-01-30T00:54:54;98051.38;;;-3.43;100.00
498;BME280;39559;48.630;9.162;2023-01-30T00:57:20;98048.16;;;-3.36;100.00
498;BME280;39559;48.630;9.162;2023-01-30T00:59:45;98049.81;;;-3.38;100.00
498;BME280;39559;48.630;9.162;2023-01-30T01:03:46;98058.66;;;-3.19;100.00
498;BME280;39559;48.630;9.162;2023-01-30T01:06:12;98054.97;;;-3.34;100.00
498;BME280;39559;48.630;9.162;2023-01-30T01:08:37;98055.78;;;-3.35;100.00
498;BME280;39559;48.630;9.162;2023-01-30T01:11:03;98058.38;;;-3.32;100.00
498;BME280;39559;48.630;9.162;2023-01-30T01:13:28;98077.44;;;-3.13;100.00
498;BME280;39559;48.630;9.162;2023-01-30T01:15:54;98075.09;;;-3.03;100.00
498;BME280;39559;48.630;9.162;2023-01-30T01:18:19;98080.97;;;-3.04;100.00
498;BME280;39559;48.630;9.162;2023-01-30T01:20:45;98078.94;;;-3.21;100.00
498;BME280;39559;48.630;9.162;2023-01-30T01:23:10;98106.88;;;-3.21;100.00
498;BME280;39559;48.630;9.162;2023-01-30T01:27:50;98114.56;;;-3.18;100.00
498;BME280;39559;48.630;9.162;2023-01-30T01:30:17;98127.88;;;-3.28;100.00
498;BME280;39559;48.630;9.162;2023-01-30T01:32:43;98128.84;;;-3.23;100.00
498;BME280;39559;48.630;9.162;2023-01-30T01:35:09;98123.78;;;-3.23;100.00
498;BME280;39559;48.630;9.162;2023-01-30T01:37:35;98127.41;;;-3.12;100.00
498;BME280;39559;48.630;9.162;2023-01-30T01:40:00;98137.41;;;-3.19;100.00
498;BME280;39559;48.630;9.162;2023-01-30T01:42:44;98139.13;;;-3.18;100.00
498;BME280;39559;48.630;9.162;2023-01-30T01:47:38;98130.34;;;-3.33;100.00
498;BME280;39559;48.630;9.162;2023-01-30T01:51:57;98138.75;;;-3.70;100.00
498;BME280;39559;48.630;9.162;2023-01-30T01:54:39;98127.63;;;-4.10;100.00
498;BME280;39559;48.630;9.162;2023-01-30T01:57:11;98121.97;;;-4.32;100.00
498;BME280;39559;48.630;9.162;2023-01-30T01:59:43;98129.97;;;-4.18;100.00
498;BME280;39559;48.630;9.162;2023-01-30T02:02:11;98120.94;;;-4.38;100.00
498;BME280;39559;48.630;9.162;2023-01-30T02:04:43;98119.78;;;-4.19;100.00
498;BME280;39559;48.630;9.162;2023-01-30T02:09:59;98129.41;;;-3.71;100.00
498;BME280;39559;48.630;9.162;2023-01-30T02:12:25;98126.91;;;-4.05;100.00
498;BME280;39559;48.630;9.162;2023-01-30T02:15:57;98139.13;;;-4.23;100.00
498;BME280;39559;48.630;9.162;2023-01-30T02:18:24;98132.38;;;-4.22;100.00
498;BME280;39559;48.630;9.162;2023-01-30T02:40:14;98125.84;;;-4.76;100.00
498;BME280;39559;48.630;9.162;2023-01-30T02:46:25;98093.69;;;-4.79;100.00
498;BME280;39559;48.630;9.162;2023-01-30T02:51:46;98130.22;;;-4.71;100.00
498;BME280;39559;48.630;9.162;2023-01-30T02:54:14;98129.34;;;-4.73;100.00
498;BME280;39559;48.630;9.162;2023-01-30T02:56:59;98102.94;;;-5.10;100.00
498;BME280;39559;48.630;9.162;2023-01-30T02:59:34;98097.28;;;-5.30;100.00
498;BME280;39559;48.630;9.162;2023-01-30T03:04:14;98089.84;;;-4.95;100.00
498;BME280;39559;48.630;9.162;2023-01-30T03:07:07;98109.34;;;-4.62;100.00
498;BME280;39559;48.630;9.162;2023-01-30T03:15:22;98105.03;;;-5.25;100.00
498;BME280;39559;48.630;9.162;2023-01-30T03:17:50;98099.94;;;-5.54;100.00
498;BME280;39559;48.630;9.162;2023-01-30T03:20:18;98085.72;;;-5.78;100.00
498;BME280;39559;48.630;9.162;2023-01-30T03:22:44;98074.25;;;-5.66;100.00
498;BME280;39559;48.630;9.162;2023-01-30T03:25:14;98063.16;;;-5.43;100.00
498;BME280;39559;48.630;9.162;2023-01-30T03:28:05;98065.25;;;-4.99;100.00
498;BME280;39559;48.630;9.162;2023-01-30T03:30:31;98071.72;;;-4.80;100.00
498;BME280;39559;48.630;9.162;2023-01-30T03:32:57;98048.13;;;-4.44;100.00
498;BME280;39559;48.630;9.162;2023-01-30T03:35:22;98023.91;;;-4.34;100.00
498;BME280;39559;48.630;9.162;2023-01-30T03:37:48;97989.59;;;-4.20;100.00
498;BME280;39559;48.630;9.162;2023-01-30T03:40:15;97951.72;;;-4.12;100.00
498;BME280;39559;48.630;9.162;2023-01-30T03:42:41;97925.97;;;-3.93;100.00
498;BME280;39559;48.630;9.162;2023-01-30T03:45:08;97939.53;;;-3.91;100.00
498;BME280;39559;48.630;9.162;2023-01-30T03:47:34;97965.16;;;-3.78;100.00
498;BME280;39559;48.630;9.162;2023-01-30T03:52:07;97994.28;;;-3.61;100.00
498;BME280;39559;48.630;9.162;2023-01-30T03:54:33;98012.38;;;-3.47;100.00
498;BME280;39559;48.630;9.162;2023-01-30T03:56:58;98024.50;;;-3.34;100.00
498;BME280;39559;48.630;9.162;2023-01-30T03:59:24;98023.47;;;-3.81;100.00
498;BME280;39559;48.630;9.162;2023-01-30T04:01:49;98019.50;;;-3.69;100.00
498;BME280;39559;48.630;9.162;2023-01-30T04:04:15;98029.91;;;-3.58;100.00
498;BME280;39559;48.630;9.162;2023-01-30T04:06:40;98030.22;;;-3.42;100.00
498;BME280;39559;48.630;9.162;2023-01-30T04:09:06;98010.31;;;-3.63;100.00
498;BME280;39559;48.630;9.162;2023-01-30T04:11:31;97999.25;;;-3.67;100.00
498;BME280;39559;48.630;9.162;2023-01-30T04:16:16;98007.44;;;-3.79;100.00
498;BME280;39559;48.630;9.162;2023-01-30T04:18:42;98010.00;;;-3.77;100.00
498;BME280;39559;48.630;9.162;2023-01-30T04:21:08;98013.72;;;-3.63;100.00
498;BME280;39559;48.630;9.162;2023-01-30T04:23:33;98022.50;;;-3.49;100.00
498;BME280;39559;48.630;9.162;2023-01-30T04:25:59;98011.50;;;-3.49;100.00
498;BME280;39559;48.630;9.162;2023-01-30T04:28:25;98011.78;;;-3.34;100.00
498;BME280;39559;48.630;9.162;2023-01-30T04:30:53;98017.72;;;-3.33;100.00
498;BME280;39559;48.630;9.162;2023-01-30T04:33:19;98018.66;;;-3.30;100.00
498;BME280;39559;48.630;9.162;2023-01-30T04:35:56;98015.00;;;-3.01;100.00
498;BME280;39559;48.630;9.162;2023-01-30T04:40:13;98011.75;;;-2.94;100.00
498;BME280;39559;48.630;9.162;2023-01-30T04:42:39;98014.28;;;-2.94;100.00
498;BME280;39559;48.630;9.162;2023-01-30T04:45:05;98015.09;;;-2.95;100.00
498;BME280;39559;48.630;9.162;2023-01-30T04:47:30;98010.75;;;-3.01;100.00
498;BME280;39559;48.630;9.162;2023-01-30T04:49:56;98006.56;;;-2.99;100.00
498;BME280;39559;48.630;9.162;2023-01-30T04:52:21;98013.50;;;-2.90;100.00
498;BME280;39559;48.630;9.162;2023-01-30T04:54:47;98013.44;;;-2.95;100.00
498;BME280;39559;48.630;9.162;2023-01-30T04:57:12;98020.00;;;-3.04;100.00
498;BME280;39559;48.630;9.162;2023-01-30T04:59:38;98017.78;;;-2.89;100.00
498;BME280;39559;48.630;9.162;2023-01-30T05:04:16;98032.66;;;-2.63;100.00
498;BME280;39559;48.630;9.162;2023-01-30T05:06:42;98022.50;;;-2.63;100.00
498;BME280;39559;48.630;9.162;2023-01-30T05:09:07;98025.31;;;-2.46;100.00
498;BME280;39559;48.630;9.162;2023-01-30T05:11:33;98023.78;;;-2.37;100.00
498;BME280;39559;48.630;9.162;2023-01-30T05:14:00;98010.78;;;-2.54;100.00
498;BME280;39559;48.630;9.162;2023-01-30T05:16:26;98001.13;;;-2.72;100.00
498;BME280;39559;48.630;9.162;2023-01-30T05:18:51;98002.06;;;-2.68;100.00
498;BME280;39559;48.630;9.162;2023-01-30T05:21:19;97993.59;;;-2.68;100.00
498;BME280;39559;48.630;9.162;2023-01-30T05:23:46;97992.72;;;-2.69;100.00
498;BME280;39559;48.630;9.162;2023-01-30T05:28:19;97976.59;;;-2.70;100.00
498;BME280;39559;48.630;9.162;2023-01-30T05:30:44;97963.00;;;-2.72;100.00
498;BME280;39559;48.630;9.162;2023-01-30T05:33:10;97957.94;;;-2.72;100.00
498;BME280;39559;48.630;9.162;2023-01-30T05:35:35;97956.22;;;-2.73;100.00
498;BME280;39559;48.630;9.162;2023-01-30T05:38:01;97940.97;;;-2.73;100.00
498;BME280;39559;48.630;9.162;2023-01-30T05:40:27;97942.69;;;-2.72;100.00
498;BME280;39559;48.630;9.162;2023-01-30T05:42:53;97925.75;;;-2.70;100.00
498;BME280;39559;48.630;9.162;2023-01-30T05:45:18;97940.19;;;-2.68;100.00
498;BME280;39559;48.630;9.162;2023-01-30T05:47:49;97941.94;;;-2.64;100.00
498;BME280;39559;48.630;9.162;2023-01-30T05:52:22;97930.91;;;-2.66;100.00
498;BME280;39559;48.630;9.162;2023-01-30T05:54:47;97927.53;;;-2.67;100.00
498;BME280;39559;48.630;9.162;2023-01-30T05:57:13;97922.50;;;-2.62;100.00
498;BME280;39559;48.630;9.162;2023-01-30T05:59:38;97938.78;;;-2.53;100.00
498;BME280;39559;48.630;9.162;2023-01-30T06:02:04;97934.47;;;-2.55;100.00
498;BME280;39559;48.630;9.162;2023-01-30T06:04:29;97937.88;;;-2.56;100.00
498;BME280;39559;48.630;9.162;2023-01-30T06:06:55;97931.06;;;-2.57;100.00
498;BME280;39559;48.630;9.162;2023-01-30T06:09:20;97930.28;;;-2.53;100.00
498;BME280;39559;48.630;9.162;2023-01-30T06:11:46;97924.28;;;-2.58;100.00
498;BME280;39559;48.630;9.162;2023-01-30T06:16:24;97919.28;;;-2.52;100.00
498;BME280;39559;48.630;9.162;2023-01-30T06:18:49;97909.03;;;-2.57;100.00
498;BME280;39559;48.630;9.162;2023-01-30T06:21:15;97903.75;;;-2.67;100.00
498;BME280;39559;48.630;9.162;2023-01-30T06:23:41;97887.66;;;-2.68;100.00
498;BME280;39559;48.630;9.162;2023-01-30T06:26:07;97895.38;;;-2.63;100.00
498;BME280;39559;48.630;9.162;2023-01-30T06:28:32;97899.53;;;-2.68;100.00
498;BME280;39559;48.630;9.162;2023-01-30T06:30:58;97902.13;;;-2.64;100.00
498;BME280;39559;48.630;9.162;2023-01-30T06:33:23;97910.56;;;-2.66;100.00
498;BME280;39559;48.630;9.162;2023-01-30T06:35:50;97900.34;;;-2.70;100.00
498;BME280;39559;48.630;9.162;2023-01-30T06:40:28;97936.00;;;-2.66;100.00
498;BME280;39559;48.630;9.162;2023-01-30T06:42:53;97933.47;;;-2.65;100.00
498;BME280;39559;48.630;9.162;2023-01-30T06:45:18;97941.13;;;-2.63;100.00
498;BME280;39559;48.630;9.162;2023-01-30T06:47:49;97936.06;;;-2.63;100.00
498;BME280;39559;48.630;9.162;2023-01-30T06:50:16;97920.88;;;-2.57;100.00
498;BME280;39559;48.630;9.162;2023-01-30T06:52:44;97930.28;;;-2.55;100.00
498;BME280;39559;48.630;9.162;2023-01-30T06:55:11;97928.53;;;-2.56;100.00
498;BME280;39559;48.630;9.162;2023-01-30T06:57:37;97929.41;;;-2.54;100.00
498;BME280;39559;48.630;9.162;2023-01-30T07:00:09;97920.88;;;-2.57;100.00
498;BME280;39559;48.630;9.162;2023-01-30T07:04:30;97897.06;;;-2.62;100.00
498;BME280;39559;48.630;9.162;2023-01-30T07:06:56;97888.53;;;-2.66;100.00
498;BME280;39559;48.630;9.162;2023-01-30T07:09:22;97892.09;;;-2.56;100.00
498;BME280;39559;48.630;9.162;2023-01-30T07:11:47;97880.88;;;-2.67;100.00
498;BME280;39559;48.630;9.162;2023-01-30T07:14:14;97886.84;;;-2.67;100.00
498;BME280;39559;48.630;9.162;2023-01-30T07:16:40;97890.22;;;-2.66;100.00
498;BME280;39559;48.630;9.162;2023-01-30T07:19:05;97887.78;;;-2.60;100.00
498;BME280;39559;48.630;9.162;2023-01-30T07:21:30;97897.25;;;-2.52;100.00
498;BME280;39559;48.630;9.162;2023-01-30T07:23:56;97895.66;;;-2.45;100.00
498;BME280;39559;48.630;9.162;2023-01-30T07:28:33;97908.47;;;-2.39;100.00
498;BME280;39559;48.630;9.162;2023-01-30T07:30:59;97908.53;;;-2.34;100.00
498;BME280;39559;48.630;9.162;2023-01-30T07:33:25;97923.03;;;-2.28;100.00
498;BME280;39559;48.630;9.162;2023-01-30T07:35:51;97916.25;;;-2.28;100.00
498;BME280;39559;48.630;9.162;2023-01-30T07:38:16;97936.59;;;-2.28;100.00
498;BME280;39559;48.630;9.162;2023-01-30T07:40:41;97929.03;;;-2.25;100.00
498;BME280;39559;48.630;9.162;2023-01-30T07:43:10;97921.44;;;-2.23;100.00
498;BME280;39559;48.630;9.162;2023-01-30T07:45:41;97909.63;;;-2.18;100.00
498;BME280;39559;48.630;9.162;2023-01-30T07:48:09;97918.16;;;-2.16;100.00
498;BME280;39559;48.630;9.162;2023-01-30T07:52:36;97933.50;;;-2.10;100.00
498;BME280;39559;48.630;9.162;2023-01-30T07:55:01;97935.19;;;-2.10;100.00
498;BME280;39559;48.630;9.162;2023-01-30T07:57:27;97936.09;;;-2.07;100.00
498;BME280;39559;48.630;9.162;2023-01-30T07:59:54;97935.34;;;-2.00;100.00
498;BME280;39559;48.630;9.162;2023-01-30T08:02:19;97929.47;;;-1.96;100.00
498;BME280;39559;48.630;9.162;2023-01-30T08:04:45;97923.50;;;-1.98;100.00
498;BME280;39559;48.630;9.162;2023-01-30T08:07:10;97930.25;;;-2.00;100.00
498;BME280;39559;48.630;9.162;2023-01-30T08:09:36;97925.13;;;-2.01;100.00
498;BME280;39559;48.630;9.162;2023-01-30T08:12:01;97893.69;;;-2.06;100.00
498;BME280;39559;48.630;9.162;2023-01-30T08:16:38;97904.63;;;-2.12;100.00
498;BME280;39559;48.630;9.162;2023-01-30T08:19:04;97921.69;;;-2.05;100.00
498;BME280;39559;48.630;9.162;2023-01-30T08:21:30;97923.50;;;-1.98;100.00
498;BME280;39559;48.630;9.162;2023-01-30T08:23:56;97947.47;;;-1.82;100.00
498;BME280;39559;48.630;9.162;2023-01-30T08:26:21;97951.00;;;-1.72;100.00
498;BME280;39559;48.630;9.162;2023-01-30T08:28:47;97957.03;;;-1.64;100.00
498;BME280;39559;48.630;9.162;2023-01-30T08:31:13;97950.28;;;-1.63;100.00
498;BME280;39559;48.630;9.162;2023-01-30T08:33:39;97926.50;;;-1.62;100.00
498;BME280;39559;48.630;9.162;2023-01-30T08:36:05;97941.81;;;-1.59;100.00
498;BME280;39559;48.630;9.162;2023-01-30T08:40:41;97907.13;;;-1.49;100.00
498;BME280;39559;48.630;9.162;2023-01-30T08:43:07;97904.63;;;-1.46;100.00
498;BME280;39559;48.630;9.162;2023-01-30T08:45:33;97912.28;;;-1.46;100.00
498;BME280;39559;48.630;9.162;2023-01-30T08:48:00;97918.22;;;-1.46;100.00
498;BME280;39559;48.630;9.162;2023-01-30T08:50:26;97921.59;;;-1.48;100.00
498;BME280;39559;48.630;9.162;2023-01-30T08:52:52;97924.06;;;-1.55;100.00
498;BME280;39559;48.630;9.162;2023-01-30T08:55:17;97934.38;;;-1.45;100.00
498;BME280;39559;48.630;9.162;2023-01-30T08:57:43;97908.31;;;-1.21;100.00
498;BME280;39559;48.630;9.162;2023-01-30T09:00:09;97909.25;;;-1.14;100.00
498;BME280;39559;48.630;9.162;2023-01-30T09:04:43;97921.22;;;-1.04;100.00
498;BME280;39559;48.630;9.162;2023-01-30T09:07:09;97913.78;;;-0.83;100.00
498;BME280;39559;48.630;9.162;2023-01-30T09:09:35;97912.31;;;-0.59;100.00
498;BME280;39559;48.630;9.162;2023-01-30T09:12:00;97899.06;;;-0.06;100.00
498;BME280;39559;48.630;9.162;2023-01-30T09:14:26;97874.34;;;-0.13;100.00
498;BME280;39559;48.630;9.162;2023-01-30T09:16:52;97866.66;;;-0.25;100.00
498;BME280;39559;48.630;9.162;2023-01-30T09:19:21;97858.31;;;0.02;100.00
498;BME280;39559;48.630;9.162;2023-01-30T09:21:51;97887.47;;;0.60;100.00
498;BME280;39559;48.630;9.162;2023-01-30T09:24:17;97875.66;;;0.89;100.00
498;BME280;39559;48.630;9.162;2023-01-30T09:28:46;97884.13;;;0.74;100.00
498;BME280;39559;48.630;9.162;2023-01-30T09:31:11;97879.03;;;0.85;100.00
498;BME280;39559;48.630;9.162;2023-01-30T09:33:37;97888.47;;;1.25;100.00
498;BME280;39559;48.630;9.162;2023-01-30T09:36:02;97893.59;;;1.17;97.90
498;BME280;39559;48.630;9.162;2023-01-30T09:38:28;97862.03;;;1.18;98.14
498;BME280;39559;48.630;9.162;2023-01-30T09:49:00;97871.28;;;0.56;100.00
498;BME280;39559;48.630;9.162;2023-01-30T09:55:39;97863.69;;;0.71;100.00
498;BME280;39559;48.630;9.162;2023-01-30T09:58:16;97847.44;;;0.55;100.00
498;BME280;39559;48.630;9.162;2023-01-30T10:00:42;97861.94;;;0.56;100.00
498;BME280;39559;48.630;9.162;2023-01-30T10:05:53;97854.28;;;0.70;100.00
498;BME280;39559;48.630;9.162;2023-01-30T10:22:21;97804.78;;;2.04;100.00
498;BME280;39559;48.630;9.162;2023-01-30T10:27:49;97804.03;;;1.54;100.00
498;BME280;39559;48.630;9.162;2023-01-30T10:30:16;97810.00;;;1.34;100.00
498;BME280;39559;48.630;9.162;2023-01-30T10:32:45;97788.69;;;1.42;100.00
498;BME280;39559;48.630;9.162;2023-01-30T10:35:16;97792.97;;;1.32;100.00
498;BME280;39559;48.630;9.162;2023-01-30T10:37:50;97789.53;;;1.45;100.00
498;BME280;39559;48.630;9.162;2023-01-30T10:44:07;97787.81;;;1.58;100.00
498;BME280;39559;48.630;9.162;2023-01-30T10:57:44;97789.50;;;1.67;100.00
498;BME280;39559;48.630;9.162;2023-01-30T11:00:29;97782.69;;;1.66;100.00
498;BME280;39559;48.630;9.162;2023-01-30T11:04:59;97795.50;;;1.67;100.00
498;BME280;39559;48.630;9.162;2023-01-30T11:07:30;97792.06;;;1.65;100.00
498;BME280;39559;48.630;9.162;2023-01-30T11:09:56;97787.78;;;1.69;100.00
498;BME280;39559;48.630;9.162;2023-01-30T11:12:22;97798.06;;;1.66;100.00
498;BME280;39559;48.630;9.162;2023-01-30T11:17:18;97810.84;;;1.66;100.00
498;BME280;39559;48.630;9.162;2023-01-30T11:19:44;97807.41;;;1.67;100.00
498;BME280;39559;48.630;9.162;2023-01-30T11:22:13;97805.69;;;1.69;100.00
498;BME280;39559;48.630;9.162;2023-01-30T11:24:43;97791.19;;;1.77;100.00
498;BME280;39559;48.630;9.162;2023-01-30T11:28:56;97779.25;;;1.73;100.00
498;BME280;39559;48.630;9.162;2023-01-30T11:31:26;97782.66;;;1.75;100.00
498;BME280;39559;48.630;9.162;2023-01-30T11:34:04;97776.66;;;1.85;100.00
498;BME280;39559;48.630;9.162;2023-01-30T11:36:34;97781.78;;;1.76;100.00
498;BME280;39559;48.630;9.162;2023-01-30T11:39:03;97786.94;;;1.70;100.00
498;BME280;39559;48.630;9.162;2023-01-30T11:41:29;97789.47;;;1.78;100.00
498;BME280;39559;48.630;9.162;2023-01-30T11:44:00;97780.97;;;1.68;100.00
498;BME280;39559;48.630;9.162;2023-01-30T11:46:29;97791.22;;;1.69;100.00
498;BME280;39559;48.630;9.162;2023-01-30T11:49:17;97779.25;;;1.70;100.00
498;BME280;39559;48.630;9.162;2023-01-30T11:53:02;97794.66;;;1.51;100.00
498;BME280;39559;48.630;9.162;2023-01-30T11:55:34;97798.06;;;1.53;100.00
498;BME280;39559;48.630;9.162;2023-01-30T11:58:06;97804.91;;;1.48;100.00
498;BME280;39559;48.630;9.162;2023-01-30T12:03:05;97800.66;;;1.32;100.00
498;BME280;39559;48.630;9.162;2023-01-30T12:05:36;97804.06;;;1.26;100.00
498;BME280;39559;48.630;9.162;2023-01-30T12:10:50;97792.13;;;1.28;100.00
498;BME280;39559;48.630;9.162;2023-01-30T12:13:28;97789.56;;;1.08;100.00
498;BME280;39559;48.630;9.162;2023-01-30T12:17:14;97788.72;;;0.95;100.00
498;BME280;39559;48.630;9.162;2023-01-30T12:20:09;97786.16;;;0.97;100.00
498;BME280;39559;48.630;9.162;2023-01-30T12:22:41;97769.13;;;0.91;100.00
498;BME280;39559;48.630;9.162;2023-01-30T12:25:22;97763.16;;;0.89;100.00
498;BME280;39559;48.630;9.162;2023-01-30T12:30:29;97771.66;;;0.88;100.00
498;BME280;39559;48.630;9.162;2023-01-30T12:33:02;97764.00;;;0.93;100.00
498;BME280;39559;48.630;9.162;2023-01-30T12:35:36;97757.19;;;0.97;100.00
498;BME280;39559;48.630;9.162;2023-01-30T12:38:16;97768.25;;;0.86;100.00
498;BME280;39559;48.630;9.162;2023-01-30T12:45:18;97755.47;;;0.75;100.00
498;BME280;39559;48.630;9.162;2023-01-30T12:47:27;97759.72;;;0.87;100.00
498;BME280;39559;48.630;9.162;2023-01-30T12:52:57;97761.44;;;0.87;100.00
498;BME280;39559;48.630;9.162;2023-01-30T12:58:14;97778.47;;;0.91;100.00
498;BME280;39559;48.630;9.162;2023-01-30T13:08:25;97814.28;;;0.85;100.00
498;BME280;39559;48.630;9.162;2023-01-30T13:16:50;97802.34;;;0.77;100.00
498;BME280;39559;48.630;9.162;2023-01-30T13:19:51;97793.81;;;0.86;100.00
498;BME280;39559;48.630;9.162;2023-01-30T13:25:05;97809.13;;;0.71;100.00
498;BME280;39559;48.630;9.162;2023-01-30T13:31:54;97806.59;;;0.60;100.00
498;BME280;39559;48.630;9.162;2023-01-30T13:36:59;97814.22;;;0.55;100.00
498;BME280;39559;48.630;9.162;2023-01-30T13:39:39;97822.75;;;0.53;100.00
498;BME280;39559;48.630;9.162;2023-01-30T13:42:24;97825.25;;;0.47;100.00
498;BME280;39559;48.630;9.162;2023-01-30T13:44:52;97824.44;;;0.49;100.00
498;BME280;39559;48.630;9.162;2023-01-30T13:47:38;97826.16;;;0.56;100.00
498;BME280;39559;48.630;9.162;2023-01-30T13:56:04;97827.84;;;0.51;100.00
498;BME280;39559;48.630;9.162;2023-01-30T14:01:12;97840.59;;;0.41;100.00
498;BME280;39559;48.630;9.162;2023-01-30T14:03:41;97855.88;;;0.31;100.00
498;BME280;39559;48.630;9.162;2023-01-30T14:06:27;97846.56;;;0.46;100.00
498;BME280;39559;48.630;9.162;2023-01-30T14:08:54;97847.44;;;0.54;100.00
498;BME280;39559;48.630;9.162;2023-01-30T14:17:11;97859.31;;;0.47;100.00
498;BME280;39559;48.630;9.162;2023-01-30T14:19:38;97859.38;;;0.55;100.00
498;BME280;39559;48.630;9.162;2023-01-30T14:22:21;97862.81;;;0.60;100.00
498;BME280;39559;48.630;9.162;2023-01-30T14:27:48;97873.88;;;0.62;100.00
498;BME280;39559;48.630;9.162;2023-01-30T14:33:03;97875.53;;;0.46;100.00
498;BME280;39559;48.630;9.162;2023-01-30T14:41:26;97896.78;;;0.41;100.00
498;BME280;39559;48.630;9.162;2023-01-30T14:43:52;97901.97;;;0.57;100.00
498;BME280;39559;48.630;9.162;2023-01-30T14:48:44;97917.25;;;0.47;100.00
498;BME280;39559;48.630;9.162;2023-01-30T14:54:01;97911.34;;;0.59;100.00
498;BME280;39559;48.630;9.162;2023-01-30T14:56:49;97907.88;;;0.46;100.00
498;BME280;39559;48.630;9.162;2023-01-30T15:02:05;97939.38;;;0.45;100.00
498;BME280;39559;48.630;9.162;2023-01-30T15:05:13;97934.34;;;0.57;100.00
498;BME280;39559;48.630;9.162;2023-01-30T15:07:44;97946.28;;;0.61;100.00
498;BME280;39559;48.630;9.162;2023-01-30T15:20:47;97947.78;;;0.27;100.00
498;BME280;39559;48.630;9.162;2023-01-30T15:23:27;97949.50;;;0.26;100.00
498;BME280;39559;48.630;9.162;2023-01-30T15:26:22;97952.91;;;0.22;100.00
498;BME280;39559;48.630;9.162;2023-01-30T15:32:17;97962.25;;;0.23;100.00
498;BME280;39559;48.630;9.162;2023-01-30T15:34:55;97962.22;;;0.15;100.00
498;BME280;39559;48.630;9.162;2023-01-30T15:37:59;97952.81;;;0.11;100.00
498;BME280;39559;48.630;9.162;2023-01-30T15:40:27;97953.66;;;0.12;100.00
498;BME280;39559;48.630;9.162;2023-01-30T15:53:13;97986.91;;;0.18;100.00
498;BME280;39559;48.630;9.162;2023-01-30T15:55:41;97988.59;;;0.16;100.00
498;BME280;39559;48.630;9.162;2023-01-30T15:58:16;97989.47;;;0.15;100.00
498;BME280;39559;48.630;9.162;2023-01-30T16:00:52;97991.16;;;0.17;100.00
498;BME280;39559;48.630;9.162;2023-01-30T16:03:22;97989.47;;;0.19;100.00
498;BME280;39559;48.630;9.162;2023-01-30T16:05:53;97996.28;;;0.19;100.00
498;BME280;39559;48.630;9.162;2023-01-30T16:08:25;97993.69;;;0.16;100.00
498;BME280;39559;48.630;9.162;2023-01-30T16:10:51;97997.13;;;0.18;100.00
498;BME280;39559;48.630;9.162;2023-01-30T16:13:21;97995.41;;;0.17;100.00
498;BME280;39559;48.630;9.162;2023-01-30T16:17:14;97987.69;;;0.08;100.00
498;BME280;39559;48.630;9.162;2023-01-30T16:19:41;98000.44;;;0.05;100.00
498;BME280;39559;48.630;9.162;2023-01-30T16:22:18;98002.09;;;-0.04;100.00
498;BME280;39559;48.630;9.162;2023-01-30T16:24:47;98005.50;;;-0.02;100.00
498;BME280;39559;48.630;9.162;2023-01-30T16:27:29;98017.44;;;0.03;100.00
498;BME280;39559;48.630;9.162;2023-01-30T16:30:01;98020.81;;;-0.02;100.00
498;BME280;39559;48.630;9.162;2023-01-30T16:32:32;98024.31;;;0.10;100.00
498;BME280;39559;48.630;9.162;2023-01-30T16:37:51;98025.13;;;0.07;100.00
498;BME280;39559;48.630;9.162;2023-01-30T16:41:35;98032.75;;;0.01;100.00
498;BME280;39559;48.630;9.162;2023-01-30T16:47:04;98039.53;;;-0.01;100.00
498;BME280;39559;48.630;9.162;2023-01-30T16:52:10;98061.78;;;0.14;100.00
498;BME280;39559;48.630;9.162;2023-01-30T16:54:45;98063.50;;;0.13;100.00
498;BME280;39559;48.630;9.162;2023-01-30T16:57:29;98069.50;;;0.17;100.00
498;BME280;39559;48.630;9.162;2023-01-30T17:00:04;98067.88;;;0.28;100.00
498;BME280;39559;48.630;9.162;2023-01-30T17:05:20;98074.75;;;0.38;100.00
498;BME280;39559;48.630;9.162;2023-01-30T17:07:47;98068.75;;;0.32;100.00
498;BME280;39559;48.630;9.162;2023-01-30T17:13:34;98071.97;;;0.08;100.00
498;BME280;39559;48.630;9.162;2023-01-30T17:16:24;98083.88;;;0.09;100.00
498;BME280;39559;48.630;9.162;2023-01-30T17:18:52;98078.81;;;0.12;100.00
498;BME280;39559;48.630;9.162;2023-01-30T17:21:19;98070.25;;;0.07;100.00
498;BME280;39559;48.630;9.162;2023-01-30T17:23:48;98066.81;;;0.03;100.00
498;BME280;39559;48.630;9.162;2023-01-30T17:26:15;98065.13;;;0.02;100.00
498;BME280;39559;48.630;9.162;2023-01-30T17:29:18;98076.22;;;0.09;100.00
498;BME280;39559;48.630;9.162;2023-01-30T17:31:49;98085.56;;;0.07;100.00
498;BME280;39559;48.630;9.162;2023-01-30T17:34:15;98100.00;;;0.03;100.00
498;BME280;39559;48.630;9.162;2023-01-30T17:36:42;98099.19;;;0.06;100.00
498;BME280;39559;48.630;9.162;2023-01-30T17:39:12;98102.50;;;-0.03;100.00